Telogia, FL (32360)

12:52 AM EDT on July 30, 2015 (GMT -0400)
W.R. Tolar K-8 School WeatherSTEM | | Change Station
CLOSE
Current Station
Personal Weather Station
Location: Bristol, FL
Elevation: 154 ft
Nearby Weather Stations

Elev 154 ft 30.40 °N, 84.98 °W | Updated 9 minutes ago

Overcast
Overcast
75.6 °F
Feels Like 74 °F
N
1.0
Wind Variable Wind from WSW
Gusts 4.0 mph

Today
High -- | Low -- °F
--% Chance of Precip.
Yesterday
High -- | Low -- °F
Precip. -- in
6:56 AM 8:34 PM
Waxing Gibbous, 98% visible
Pressure 29.97 in
Visibility 10.0 miles
Clouds Few 11000 ft
Heat Index 74 °F
Dew Point 75 °F
Humidity 97%
Rainfall 0.00 in
Snow Depth Not available.
UV 0.0 out of 12
Pollen 3.30 out of 12
Air Quality Not available.
Flu Activity Not available.
METAR KTLH 300353Z AUTO 28004KT 10SM -RA FEW110 26/24 A2997 RMK AO2 SLP148 P0003 T02560239

More Conditions Fewer Conditions

Pressure 29.97 in
Visibility 10.0 miles
Clouds Few 11000 ft
Heat Index 74 °F
Dew Point 75 °F
Humidity 97%
Rainfall 0.00 in
Snow Depth Not available.
UV 0.0 out of 12
Pollen 3.30 out of 12
Air Quality Not available.
Flu Activity Not available.
METAR KTLH 300353Z AUTO 28004KT 10SM -RA FEW110 26/24 A2997 RMK AO2 SLP148 P0003 T02560239

More Conditions Fewer Conditions

10-Day Weather Forecast

×

Almanac

Astronomy

Jul. 30, 2015 Rise Set
Actual Time
Civil Twilight
Nautical Twilight
Astronomical Twilight
Moon
Length of Visible Light
Length of Day
Tomorrow will be .
, % of the Moon is Illuminated

Today's Extremes

State Highs State Lows

Community

WunderPhotos

Upload Photos

1,842,307 photos uploaded!

WunderBlogs® & News

Nearby

Air Quality

  Air Quality AQ Index Pollutant
Not available.

Snow Depth

Station Depth Elevation

Earthquake Activity

City Distance Mag. Time & Date
Minimum magnitude displayed is 2.5.

Coastal Water Temperatures

Place Temperature

Stations

Nearby Weather Stations

Station Location Temp. Windchill Dew Point Humidity Wind Precip. Elev Updated Type